Time;durP1;ratioP1;P1;durP2;ratioP2;P2;SDS_P1;SDS_P2;PMS_P1;PMS_P2;Temp;Humidity;BMP_temperature;BMP_pressure;BME280_temperature;BME280_humidity;BME280_pressure;Samples;Min_cycle;Max_cycle;Signal;HPM_P1;HPM_P2
2023/05/14 00:01:15;;;;;;;16.05;10.90;;;15.80;99.90;;;;;;5113205;28;20027;-75
2023/05/14 00:03:41;;;;;;;16.38;11.77;;;15.80;99.90;;;;;;5112695;28;20020;-75
2023/05/14 00:06:07;;;;;;;21.35;11.68;;;15.80;99.90;;;;;;5112635;28;20488;-74
2023/05/14 00:08:33;;;;;;;19.27;11.85;;;15.80;99.90;;;;;;5112878;28;20058;-76
2023/05/14 00:10:59;;;;;;;15.82;11.15;;;15.80;99.90;;;;;;5112804;28;20504;-75
2023/05/14 00:13:25;;;;;;;14.23;10.55;;;15.70;99.90;;;;;;5112621;28;20082;-75
2023/05/14 00:15:51;;;;;;;14.18;9.48;;;15.70;99.90;;;;;;5112412;28;20032;-75
2023/05/14 00:18:16;;;;;;;11.75;8.90;;;15.70;99.90;;;;;;5112870;28;20046;-75
2023/05/14 00:20:42;;;;;;;10.90;8.35;;;15.60;99.90;;;;;;5111817;28;20051;-76
2023/05/14 00:23:08;;;;;;;10.88;7.97;;;15.60;99.90;;;;;;5112545;28;20508;-75
2023/05/14 00:25:33;;;;;;;13.50;8.43;;;15.60;99.90;;;;;;5112450;28;20059;-75
2023/05/14 00:27:59;;;;;;;9.85;8.07;;;15.50;99.90;;;;;;5112239;28;20024;-75
2023/05/14 00:30:25;;;;;;;12.45;8.13;;;15.50;99.90;;;;;;5112188;28;20019;-75
2023/05/14 00:32:51;;;;;;;8.73;7.65;;;15.50;99.90;;;;;;5112140;28;20053;-75
2023/05/14 00:35:16;;;;;;;11.50;8.13;;;15.50;99.90;;;;;;5112136;28;20080;-75
2023/05/14 00:37:42;;;;;;;9.70;6.90;;;15.50;99.90;;;;;;5111952;28;20039;-76
2023/05/14 00:40:10;;;;;;;10.52;6.85;;;15.40;99.90;;;;;;5112199;28;20031;-75
2023/05/14 00:42:36;;;;;;;9.15;6.88;;;15.50;99.90;;;;;;5111555;28;20089;-75
2023/05/14 00:45:02;;;;;;;13.07;7.88;;;15.40;99.90;;;;;;5112226;28;20023;-76
2023/05/14 00:47:27;;;;;;;10.55;7.65;;;15.50;99.90;;;;;;5111469;28;20042;-75
2023/05/14 00:49:53;;;;;;;9.60;6.70;;;15.40;99.90;;;;;;5111921;28;20027;-75
2023/05/14 00:52:19;;;;;;;8.55;6.65;;;15.40;99.90;;;;;;5112223;28;20026;-75
2023/05/14 00:54:46;;;;;;;6.78;5.90;;;15.40;99.90;;;;;;5111948;28;20028;-75
2023/05/14 00:57:12;;;;;;;6.57;5.57;;;15.40;99.90;;;;;;5111519;28;20472;-75
2023/05/14 00:59:40;;;;;;;7.78;5.90;;;15.30;99.90;;;;;;5112113;28;20028;-75
2023/05/14 01:02:06;;;;;;;6.53;5.47;;;15.30;99.90;;;;;;5093088;28;20020;-75
2023/05/14 01:04:34;;;;;;;6.60;4.38;;;15.30;99.90;;;;;;5111791;28;20111;-76
2023/05/14 01:07:08;;;;;;;6.25;4.18;;;15.20;99.90;;;;;;5112128;28;20778;-75
2023/05/14 01:09:37;;;;;;;5.30;4.10;;;15.20;99.90;;;;;;5093086;28;20443;-76
2023/05/14 01:12:24;;;;;;;5.25;4.10;;;15.10;99.90;;;;;;5111496;28;20038;-76
2023/05/14 01:15:08;;;;;;;6.50;3.90;;;15.10;99.90;;;;;;5111560;28;20039;-75
2023/05/14 01:17:41;;;;;;;5.78;3.80;;;15.10;99.90;;;;;;5111450;28;20032;-76
2023/05/14 01:20:08;;;;;;;5.30;3.83;;;15.00;99.90;;;;;;5112016;28;20129;-75
2023/05/14 01:22:34;;;;;;;5.07;3.80;;;15.00;99.90;;;;;;5111392;28;20111;-75
2023/05/14 01:24:59;;;;;;;5.50;3.95;;;15.00;99.90;;;;;;5111519;28;20098;-76
2023/05/14 01:27:33;;;;;;;5.63;3.80;;;14.90;99.90;;;;;;5111630;28;20365;-75
2023/05/14 01:30:06;;;;;;;7.97;3.50;;;15.00;99.90;;;;;;5111406;28;20388;-75
2023/05/14 01:32:33;;;;;;;6.10;3.60;;;14.90;99.90;;;;;;5111132;28;20042;-76
2023/05/14 01:35:00;;;;;;;7.28;4.00;;;14.90;99.90;;;;;;5111453;28;20027;-76
2023/05/14 01:37:28;;;;;;;7.13;4.13;;;14.90;99.90;;;;;;5111987;28;20024;-75
2023/05/14 01:39:56;;;;;;;4.55;3.80;;;14.80;99.90;;;;;;5111270;28;20122;-75
2023/05/14 01:42:22;;;;;;;5.30;3.63;;;14.90;99.90;;;;;;5111214;28;20454;-76
2023/05/14 01:44:48;;;;;;;4.28;3.65;;;14.80;99.90;;;;;;5111273;28;20557;-75
2023/05/14 01:47:14;;;;;;;4.47;3.78;;;14.80;99.90;;;;;;5111468;28;20020;-76
2023/05/14 01:49:40;;;;;;;4.25;3.60;;;14.80;99.90;;;;;;5111172;28;20456;-75
2023/05/14 01:52:07;;;;;;;5.15;3.70;;;14.80;99.90;;;;;;5111301;28;20019;-75
2023/05/14 01:54:33;;;;;;;6.45;3.75;;;14.80;99.90;;;;;;5111389;28;20016;-75
2023/05/14 01:56:58;;;;;;;4.85;3.90;;;14.80;99.90;;;;;;5115155;28;20023;-75
2023/05/14 01:59:24;;;;;;;5.40;3.90;;;14.80;99.90;;;;;;5115401;28;20039;-75
2023/05/14 02:01:50;;;;;;;6.05;3.70;;;14.80;99.90;;;;;;5114618;28;20030;-75
2023/05/14 02:04:15;;;;;;;4.68;3.95;;;14.70;99.90;;;;;;5115069;28;20031;-75
2023/05/14 02:06:41;;;;;;;8.88;3.90;;;14.70;99.90;;;;;;5115374;28;20034;-75
2023/05/14 02:09:07;;;;;;;4.60;4.13;;;14.70;99.90;;;;;;5114742;28;20484;-75
2023/05/14 02:11:32;;;;;;;6.00;3.90;;;14.70;99.90;;;;;;5114870;28;20027;-74
2023/05/14 02:13:58;;;;;;;5.60;4.30;;;14.60;99.90;;;;;;5115018;28;20048;-75
2023/05/14 02:16:24;;;;;;;4.85;3.67;;;14.60;99.90;;;;;;5114452;28;20020;-75
2023/05/14 02:18:50;;;;;;;5.00;3.75;;;14.50;99.90;;;;;;5114737;28;20100;-75
2023/05/14 02:21:15;;;;;;;5.28;4.10;;;14.50;99.90;;;;;;5114724;28;20484;-75
2023/05/14 02:23:41;;;;;;;6.57;4.20;;;14.50;99.90;;;;;;5115117;28;20027;-75
2023/05/14 02:26:09;;;;;;;5.43;3.78;;;14.50;99.90;;;;;;5114760;28;20047;-76
2023/05/14 02:28:34;;;;;;;4.47;4.07;;;14.50;99.90;;;;;;5114490;28;20028;-75
2023/05/14 02:31:00;;;;;;;5.85;3.90;;;14.40;99.90;;;;;;5114119;28;20503;-75
2023/05/14 02:33:27;;;;;;;6.38;4.25;;;14.30;99.90;;;;;;5114915;28;20515;-75
2023/05/14 02:35:53;;;;;;;5.63;4.00;;;14.40;99.90;;;;;;5114411;28;20036;-75
2023/05/14 02:38:19;;;;;;;4.57;3.97;;;14.40;99.90;;;;;;5114295;28;20024;-75
2023/05/14 02:40:45;;;;;;;4.03;3.50;;;14.40;99.90;;;;;;5114329;28;20028;-75
2023/05/14 02:43:10;;;;;;;4.45;3.70;;;14.40;99.90;;;;;;5114515;28;20084;-75
2023/05/14 02:45:36;;;;;;;3.88;3.50;;;14.50;99.90;;;;;;5113893;28;20440;-75
2023/05/14 02:48:02;;;;;;;3.72;3.30;;;14.50;99.90;;;;;;5114368;28;20439;-75
2023/05/14 02:50:27;;;;;;;3.72;3.33;;;14.50;99.90;;;;;;5114192;28;20054;-75
2023/05/14 02:52:53;;;;;;;6.55;3.42;;;14.60;99.90;;;;;;5114502;28;20553;-75
2023/05/14 02:55:19;;;;;;;4.80;4.13;;;14.60;99.90;;;;;;5114004;28;20442;-75
2023/05/14 02:57:45;;;;;;;4.65;4.00;;;14.60;99.90;;;;;;5113946;28;20064;-75
2023/05/14 03:00:11;;;;;;;4.60;4.20;;;14.60;99.90;;;;;;5113633;28;20020;-75
2023/05/14 03:02:37;;;;;;;8.52;3.97;;;14.60;99.90;;;;;;5113853;28;20614;-76
2023/05/14 03:05:03;;;;;;;5.38;4.13;;;14.60;99.90;;;;;;5113782;28;20031;-75
2023/05/14 03:07:29;;;;;;;5.95;4.05;;;14.60;99.90;;;;;;5113836;28;20039;-75
2023/05/14 03:09:55;;;;;;;5.88;3.90;;;14.60;99.90;;;;;;5113518;28;20437;-75
2023/05/14 03:12:21;;;;;;;8.25;3.95;;;14.60;99.90;;;;;;5113093;28;20501;-73
2023/05/14 03:14:46;;;;;;;9.75;4.20;;;14.50;99.90;;;;;;5113747;28;20034;-75
2023/05/14 03:17:12;;;;;;;7.60;4.22;;;14.50;99.90;;;;;;5113894;28;20503;-75
2023/05/14 03:19:37;;;;;;;8.65;4.38;;;14.50;99.90;;;;;;5113414;28;20028;-75
2023/05/14 03:22:03;;;;;;;12.18;4.55;;;14.50;99.90;;;;;;5113897;28;20106;-75
2023/05/14 03:24:30;;;;;;;10.23;4.60;;;14.50;99.90;;;;;;5113508;28;20073;-76
2023/05/14 03:26:56;;;;;;;6.07;4.10;;;14.50;99.90;;;;;;5113099;28;20486;-75
2023/05/14 03:29:21;;;;;;;6.93;4.88;;;14.50;99.90;;;;;;5113880;28;20028;-75
2023/05/14 03:31:48;;;;;;;7.32;4.45;;;14.50;99.90;;;;;;5113405;28;20051;-75
2023/05/14 03:34:14;;;;;;;7.13;4.40;;;14.50;99.90;;;;;;5113270;28;20031;-75
2023/05/14 03:36:40;;;;;;;6.60;4.45;;;14.50;99.90;;;;;;5113423;28;20381;-75
2023/05/14 03:39:08;;;;;;;5.93;4.50;;;14.40;99.90;;;;;;5113198;28;20023;-75
2023/05/14 03:41:35;;;;;;;9.60;5.20;;;14.40;99.90;;;;;;5112758;28;20404;-75
2023/05/14 03:44:00;;;;;;;11.77;4.60;;;14.40;99.90;;;;;;5113244;28;20030;-75
2023/05/14 03:46:26;;;;;;;7.00;4.80;;;14.40;99.90;;;;;;5094811;28;20471;-75
2023/05/14 03:48:52;;;;;;;8.05;5.28;;;14.40;99.90;;;;;;5113341;28;20123;-75
2023/05/14 03:51:17;;;;;;;8.27;4.72;;;14.40;99.90;;;;;;5112861;28;20020;-75
2023/05/14 03:53:43;;;;;;;6.63;4.70;;;14.40;99.90;;;;;;5112714;28;20031;-75
2023/05/14 03:56:09;;;;;;;7.97;4.97;;;14.40;99.90;;;;;;5112474;28;20050;-75
2023/05/14 03:58:34;;;;;;;7.00;4.70;;;14.30;99.90;;;;;;5112852;28;20027;-75
2023/05/14 04:01:00;;;;;;;7.50;5.30;;;14.30;99.90;;;;;;5112690;28;20472;-75
2023/05/14 04:03:26;;;;;;;11.20;5.22;;;14.30;99.90;;;;;;5112728;28;20140;-75
2023/05/14 04:05:51;;;;;;;9.40;5.15;;;14.30;99.90;;;;;;5113048;28;20046;-75
2023/05/14 04:08:17;;;;;;;9.65;4.90;;;14.20;99.90;;;;;;5112452;28;20054;-76
2023/05/14 04:10:42;;;;;;;10.63;5.30;;;14.20;99.90;;;;;;5111949;28;20396;-75
2023/05/14 04:13:08;;;;;;;10.13;5.47;;;14.20;99.90;;;;;;5112693;28;20131;-74
2023/05/14 04:15:38;;;;;;;10.18;5.50;;;14.20;99.90;;;;;;5112404;28;20024;-75
2023/05/14 04:18:04;;;;;;;8.38;5.53;;;14.10;99.90;;;;;;5111796;28;20032;-75
2023/05/14 04:20:29;;;;;;;8.32;5.10;;;14.10;99.90;;;;;;5112480;28;20023;-75
2023/05/14 04:22:55;;;;;;;8.52;5.15;;;14.10;99.90;;;;;;5112116;28;20027;-75
2023/05/14 04:25:21;;;;;;;11.30;5.40;;;14.10;99.90;;;;;;5112097;28;20023;-75
2023/05/14 04:27:47;;;;;;;9.30;5.07;;;14.10;99.90;;;;;;5112426;28;20039;-76
2023/05/14 04:30:12;;;;;;;9.38;5.43;;;14.00;99.90;;;;;;5112692;28;20489;-75
2023/05/14 04:32:38;;;;;;;10.70;5.20;;;14.00;99.90;;;;;;5112104;28;20019;-75
2023/05/14 04:35:05;;;;;;;8.63;5.53;;;13.90;99.90;;;;;;5112433;28;20020;-75
2023/05/14 04:37:31;;;;;;;10.80;5.60;;;13.90;99.90;;;;;;5111792;28;20488;-75
2023/05/14 04:39:57;;;;;;;8.52;6.05;;;13.80;99.90;;;;;;5112483;28;20512;-75
2023/05/14 04:42:24;;;;;;;8.80;5.43;;;13.80;99.90;;;;;;5111929;28;20053;-75
2023/05/14 04:44:50;;;;;;;10.45;5.82;;;13.70;99.90;;;;;;5112059;28;20039;-75
2023/05/14 04:47:15;;;;;;;7.32;5.70;;;13.70;99.90;;;;;;5111798;28;20388;-75
2023/05/14 04:49:42;;;;;;;6.82;5.20;;;13.70;99.90;;;;;;5112391;28;20042;-75
2023/05/14 04:52:07;;;;;;;7.63;5.63;;;13.70;99.90;;;;;;5111757;28;20023;-75
2023/05/14 04:54:33;;;;;;;8.02;6.32;;;13.70;99.90;;;;;;5111499;28;20476;-75
2023/05/14 04:57:02;;;;;;;6.68;5.70;;;13.60;99.90;;;;;;5111330;28;20397;-75
2023/05/14 04:59:28;;;;;;;7.60;5.57;;;13.50;99.90;;;;;;5112141;28;20024;-75
2023/05/14 05:01:54;;;;;;;9.38;6.10;;;13.60;99.90;;;;;;5111814;28;20480;-75
2023/05/14 05:04:20;;;;;;;9.00;6.07;;;13.50;99.90;;;;;;5111737;28;20028;-75
2023/05/14 05:06:45;;;;;;;9.50;5.90;;;13.60;99.90;;;;;;5111684;28;20032;-75
2023/05/14 05:09:11;;;;;;;8.68;6.22;;;13.60;99.90;;;;;;5111180;28;20130;-75
2023/05/14 05:11:37;;;;;;;7.05;5.82;;;13.60;99.90;;;;;;5111561;28;20072;-75
2023/05/14 05:14:03;;;;;;;6.63;6.00;;;13.60;99.90;;;;;;5111479;28;20055;-75
2023/05/14 05:16:29;;;;;;;7.50;5.72;;;13.60;99.90;;;;;;5112006;28;20035;-75
2023/05/14 05:18:54;;;;;;;9.90;6.45;;;13.60;99.90;;;;;;5111594;28;20111;-75
2023/05/14 05:21:20;;;;;;;6.43;5.82;;;13.60;99.90;;;;;;5111878;28;20027;-75
2023/05/14 05:23:46;;;;;;;8.65;6.40;;;13.70;99.90;;;;;;5092610;28;20032;-75
2023/05/14 05:26:11;;;;;;;7.28;6.07;;;13.60;99.90;;;;;;5111484;28;20031;-75
2023/05/14 05:28:37;;;;;;;7.63;5.40;;;13.60;99.90;;;;;;5111613;28;20031;-75
2023/05/14 05:31:03;;;;;;;6.30;5.70;;;13.70;99.90;;;;;;5115935;28;20031;-75
2023/05/14 05:33:29;;;;;;;7.40;5.93;;;13.60;99.90;;;;;;5115836;28;20052;-75
2023/05/14 05:35:54;;;;;;;6.13;5.63;;;13.70;99.90;;;;;;5115432;28;20503;-75
2023/05/14 05:38:20;;;;;;;7.03;6.10;;;13.70;99.90;;;;;;5115218;28;20480;-75
2023/05/14 05:40:46;;;;;;;6.72;6.13;;;13.70;99.90;;;;;;5115816;28;20023;-74
2023/05/14 05:43:13;;;;;;;8.32;6.18;;;13.70;99.90;;;;;;5115359;28;20034;-75
2023/05/14 05:45:39;;;;;;;6.82;6.10;;;13.70;99.90;;;;;;5115461;28;20143;-75
2023/05/14 05:48:05;;;;;;;6.45;5.82;;;13.70;99.90;;;;;;5115293;28;20040;-75
2023/05/14 05:50:31;;;;;;;7.40;6.70;;;13.70;99.90;;;;;;5115077;28;20107;-77
2023/05/14 05:52:58;;;;;;;7.60;6.88;;;13.80;99.90;;;;;;5115153;28;20480;-75
2023/05/14 05:55:24;;;;;;;7.10;6.40;;;13.80;99.90;;;;;;5115218;28;20035;-75
2023/05/14 05:57:50;;;;;;;8.07;6.65;;;13.80;99.90;;;;;;5115523;28;20106;-75
2023/05/14 06:00:16;;;;;;;8.00;6.70;;;13.80;99.90;;;;;;5115171;28;20110;-75
2023/05/14 06:02:42;;;;;;;7.15;6.22;;;13.80;99.90;;;;;;5115107;28;20023;-74
2023/05/14 06:05:09;;;;;;;9.02;6.95;;;13.80;99.90;;;;;;5114788;28;20400;-75
2023/05/14 06:07:35;;;;;;;7.78;7.07;;;13.90;99.90;;;;;;5114901;28;20030;-75
2023/05/14 06:10:01;;;;;;;7.32;6.63;;;13.90;99.90;;;;;;5114828;28;20073;-75
2023/05/14 06:12:26;;;;;;;9.75;7.15;;;13.90;99.90;;;;;;5114715;28;20052;-75
2023/05/14 06:14:54;;;;;;;8.05;7.25;;;13.90;99.90;;;;;;5115022;28;20027;-75
2023/05/14 06:17:20;;;;;;;7.45;6.75;;;13.90;99.90;;;;;;5114838;28;20069;-75
2023/05/14 06:19:46;;;;;;;7.78;6.93;;;13.90;99.90;;;;;;5114611;28;20023;-75
2023/05/14 06:22:13;;;;;;;7.78;6.80;;;14.00;99.90;;;;;;5114398;28;20642;-74
2023/05/14 06:24:39;;;;;;;8.13;7.00;;;14.00;99.90;;;;;;5114596;28;20031;-75
2023/05/14 06:27:05;;;;;;;7.63;6.93;;;14.10;99.90;;;;;;5114725;28;20019;-75
2023/05/14 06:29:30;;;;;;;9.13;7.20;;;14.10;99.90;;;;;;5114842;28;20043;-75
2023/05/14 06:32:00;;;;;;;9.50;7.28;;;14.10;99.90;;;;;;5114508;28;20028;-75
2023/05/14 06:34:26;;;;;;;7.60;6.78;;;14.20;99.90;;;;;;5114340;28;20055;-75
2023/05/14 06:36:52;;;;;;;8.77;7.70;;;14.20;99.90;;;;;;5114123;28;20055;-75
2023/05/14 06:39:17;;;;;;;8.85;7.25;;;14.20;99.90;;;;;;5114848;28;20506;-75
2023/05/14 06:41:43;;;;;;;8.07;7.28;;;14.30;99.90;;;;;;5113799;28;20031;-75
2023/05/14 06:44:09;;;;;;;9.35;7.70;;;14.30;99.90;;;;;;5114398;28;20031;-75
2023/05/14 06:46:36;;;;;;;9.05;7.55;;;14.40;99.90;;;;;;5114469;28;20369;-75
2023/05/14 06:49:01;;;;;;;12.05;8.93;;;14.40;99.90;;;;;;5114247;28;20561;-75
2023/05/14 06:51:27;;;;;;;14.27;9.10;;;14.40;99.90;;;;;;5113813;28;20108;-75
2023/05/14 06:53:54;;;;;;;14.05;11.85;;;14.50;99.90;;;;;;5114136;28;20032;-75
2023/05/14 06:56:23;;;;;;;14.80;11.95;;;14.50;99.90;;;;;;5114051;28;20032;-75
2023/05/14 06:58:48;;;;;;;18.17;13.25;;;14.50;99.90;;;;;;5114464;28;20027;-75
2023/05/14 07:01:16;;;;;;;15.85;14.23;;;14.60;99.90;;;;;;5113969;28;20031;-75
2023/05/14 07:03:42;;;;;;;18.52;14.30;;;14.60;99.90;;;;;;5113906;28;20391;-75
2023/05/14 07:06:07;;;;;;;18.48;13.75;;;14.70;99.90;;;;;;5113566;28;20030;-75
2023/05/14 07:08:33;;;;;;;18.52;14.05;;;14.80;99.90;;;;;;5113641;28;20031;-75
2023/05/14 07:10:59;;;;;;;16.02;14.40;;;14.90;99.90;;;;;;5114114;28;20061;-75
2023/05/14 07:13:27;;;;;;;19.92;16.45;;;15.00;99.90;;;;;;5113674;28;20047;-75
2023/05/14 07:15:54;;;;;;;23.25;19.80;;;15.00;99.90;;;;;;5113611;28;20028;-75
2023/05/14 07:18:22;;;;;;;26.95;23.95;;;15.10;99.90;;;;;;5095630;28;20038;-75
2023/05/14 07:20:48;;;;;;;27.67;23.50;;;15.10;99.90;;;;;;5113345;28;20035;-75
2023/05/14 07:23:14;;;;;;;26.67;23.25;;;15.10;99.90;;;;;;5113499;28;20024;-75
2023/05/14 07:25:40;;;;;;;29.42;22.02;;;15.20;99.90;;;;;;5113511;28;20528;-75
2023/05/14 07:28:06;;;;;;;25.75;22.92;;;15.20;99.90;;;;;;5113490;28;20058;-75
2023/05/14 07:30:31;;;;;;;30.05;24.10;;;15.30;99.90;;;;;;5113389;28;20023;-74
2023/05/14 07:32:57;;;;;;;32.08;24.50;;;15.30;99.90;;;;;;5113166;28;20027;-75
2023/05/14 07:35:23;;;;;;;28.02;24.38;;;15.40;99.90;;;;;;5113014;28;20028;-75
2023/05/14 07:37:49;;;;;;;31.88;23.05;;;15.40;99.90;;;;;;5113172;28;20566;-75
2023/05/14 07:40:15;;;;;;;32.17;24.20;;;15.40;99.90;;;;;;5113087;28;20104;-74
2023/05/14 07:42:40;;;;;;;27.05;23.25;;;15.50;99.90;;;;;;5113222;28;20015;-74
2023/05/14 07:45:08;;;;;;;28.05;23.52;;;15.50;99.90;;;;;;5113516;28;20039;-74
2023/05/14 07:47:34;;;;;;;29.52;23.02;;;15.50;99.90;;;;;;5113054;28;20019;-74
2023/05/14 07:49:59;;;;;;;30.00;22.42;;;15.50;99.90;;;;;;5112867;28;20107;-74
2023/05/14 07:52:25;;;;;;;28.30;22.55;;;15.60;99.90;;;;;;5112231;28;20444;-74
2023/05/14 07:54:51;;;;;;;25.52;21.98;;;15.60;99.90;;;;;;5112794;28;20051;-77
2023/05/14 07:57:18;;;;;;;28.88;22.08;;;15.70;99.90;;;;;;5113016;28;20024;-76
2023/05/14 07:59:43;;;;;;;24.75;22.02;;;15.70;99.90;;;;;;5112657;28;20028;-77
2023/05/14 08:02:11;;;;;;;27.58;21.83;;;15.80;99.90;;;;;;5112641;28;20073;-77
2023/05/14 08:04:37;;;;;;;25.40;21.55;;;15.80;99.90;;;;;;5112721;28;20496;-77
2023/05/14 08:07:03;;;;;;;25.67;20.77;;;15.80;99.90;;;;;;5112739;28;20047;-77
2023/05/14 08:09:29;;;;;;;25.80;20.70;;;15.80;99.90;;;;;;5112404;28;20504;-78
2023/05/14 08:11:54;;;;;;;31.40;21.15;;;15.70;99.90;;;;;;5094194;28;20019;-78
2023/05/14 08:14:27;;;;;;;22.05;19.48;;;15.80;99.90;;;;;;5068675;28;20390;-78
2023/05/14 08:16:53;;;;;;;22.02;19.80;;;15.80;99.90;;;;;;5068273;28;20029;-78
2023/05/14 08:19:19;;;;;;;24.50;18.67;;;15.80;99.90;;;;;;5068656;28;20036;-79
2023/05/14 08:21:45;;;;;;;23.38;19.15;;;15.90;99.90;;;;;;5067421;28;20108;-75
2023/05/14 08:24:11;;;;;;;24.73;18.45;;;15.90;99.90;;;;;;5068446;28;20409;-75
2023/05/14 08:26:37;;;;;;;23.52;17.58;;;15.90;99.90;;;;;;5068333;28;20532;-75
2023/05/14 08:29:03;;;;;;;24.02;18.48;;;15.90;99.90;;;;;;5068228;28;20029;-75
2023/05/14 08:31:29;;;;;;;23.23;17.55;;;15.90;99.90;;;;;;5067926;28;20096;-75
2023/05/14 08:33:55;;;;;;;23.00;17.50;;;15.90;99.90;;;;;;5068537;28;20474;-74
2023/05/14 08:36:21;;;;;;;21.75;16.88;;;15.90;99.90;;;;;;5068185;28;20096;-74
2023/05/14 08:38:47;;;;;;;24.45;16.55;;;16.00;99.90;;;;;;5068144;28;20036;-75
2023/05/14 08:41:15;;;;;;;24.25;16.60;;;16.00;99.90;;;;;;5068371;28;20350;-74
2023/05/14 08:44:03;;;;;;;20.52;15.95;;;16.10;99.90;;;;;;5068370;28;20029;-75
2023/05/14 08:46:29;;;;;;;22.10;16.55;;;16.20;99.90;;;;;;5064474;28;20525;-75
2023/05/14 08:49:14;;;;;;;24.67;16.48;;;16.20;99.90;;;;;;5067931;28;20033;-74
2023/05/14 08:51:41;;;;;;;26.05;16.83;;;16.30;99.90;;;;;;5067875;28;20025;-75
2023/05/14 08:54:07;;;;;;;23.58;15.95;;;16.30;99.90;;;;;;5067926;28;20409;-75
2023/05/14 08:56:33;;;;;;;23.23;15.55;;;16.30;99.90;;;;;;5067999;28;20393;-75
2023/05/14 08:58:59;;;;;;;22.38;14.90;;;16.40;99.90;;;;;;5067566;28;20032;-75
2023/05/14 09:01:25;;;;;;;23.58;14.85;;;16.40;99.90;;;;;;5067352;28;20216;-75
2023/05/14 09:03:52;;;;;;;22.02;15.65;;;16.40;99.90;;;;;;5067710;28;20024;-75
2023/05/14 09:06:19;;;;;;;25.27;14.63;;;16.50;99.90;;;;;;5067763;28;20036;-76
2023/05/14 09:08:45;;;;;;;21.10;15.77;;;16.50;99.90;;;;;;5067564;28;20504;-75
2023/05/14 09:11:11;;;;;;;23.45;14.38;;;16.50;99.90;;;;;;5067471;28;20389;-75
2023/05/14 09:13:40;;;;;;;23.23;14.30;;;16.60;99.90;;;;;;5066920;28;20061;-75
2023/05/14 09:16:06;;;;;;;18.60;13.38;;;16.60;99.90;;;;;;5067558;28;20029;-75
2023/05/14 09:18:32;;;;;;;18.23;13.55;;;16.60;99.90;;;;;;5067375;28;20028;-75
2023/05/14 09:20:58;;;;;;;18.67;13.25;;;16.60;99.90;;;;;;5067280;28;20430;-75
2023/05/14 09:23:30;;;;;;;17.30;13.35;;;16.70;99.90;;;;;;5067168;28;20106;-76
2023/05/14 09:25:56;;;;;;;21.17;13.32;;;16.70;99.90;;;;;;5053812;28;20397;-75
2023/05/14 09:28:23;;;;;;;19.67;14.35;;;16.70;99.90;;;;;;5053864;28;20021;-76
2023/05/14 09:30:51;;;;;;;21.67;13.90;;;16.80;99.90;;;;;;5053517;28;20025;-76
2023/05/14 09:33:27;;;;;;;23.23;15.07;;;16.90;99.90;;;;;;5053832;28;20064;-76
2023/05/14 09:35:59;;;;;;;19.63;15.35;;;16.90;99.90;;;;;;5054064;28;20098;-76
2023/05/14 09:38:29;;;;;;;23.38;14.93;;;16.90;99.90;;;;;;5052368;28;20445;-75
2023/05/14 09:40:56;;;;;;;20.25;14.15;;;17.00;99.90;;;;;;5053675;28;20031;-75
2023/05/14 09:43:22;;;;;;;21.98;15.35;;;17.00;99.90;;;;;;5053809;28;20406;-76
2023/05/14 09:45:47;;;;;;;21.55;14.98;;;17.00;99.90;;;;;;5053300;28;20028;-76
2023/05/14 09:48:13;;;;;;;19.42;15.55;;;17.00;99.90;;;;;;5053603;28;20056;-75
2023/05/14 09:50:43;;;;;;;21.23;14.27;;;17.00;99.90;;;;;;5053583;28;20048;-76
2023/05/14 09:53:09;;;;;;;22.67;14.10;;;17.00;99.90;;;;;;5053386;28;20057;-76
2023/05/14 09:55:36;;;;;;;21.90;14.15;;;17.00;99.90;;;;;;5053479;28;20033;-75
2023/05/14 09:58:02;;;;;;;22.25;15.43;;;17.00;99.90;;;;;;5053521;28;20035;-76
2023/05/14 10:00:30;;;;;;;26.50;14.77;;;17.00;99.90;;;;;;5053391;28;20036;-76
2023/05/14 10:02:57;;;;;;;19.23;14.05;;;17.10;99.90;;;;;;5053257;28;20017;-76
2023/05/14 10:05:25;;;;;;;20.92;13.70;;;17.10;99.90;;;;;;5053399;28;20488;-76
2023/05/14 10:07:53;;;;;;;16.58;12.65;;;17.20;99.90;;;;;;5053173;28;20482;-76
2023/05/14 10:10:22;;;;;;;20.90;12.77;;;17.20;99.90;;;;;;5053220;28;20061;-76
2023/05/14 10:12:56;;;;;;;20.40;13.23;;;17.20;99.90;;;;;;5053030;28;20136;-76
2023/05/14 10:15:46;;;;;;;18.30;12.93;;;17.20;99.90;;;;;;5053235;28;20079;-76
2023/05/14 10:18:22;;;;;;;18.20;13.32;;;17.20;99.90;;;;;;5053024;28;20029;-76
2023/05/14 10:21:04;;;;;;;20.77;12.30;;;17.30;99.90;;;;;;5053251;28;20082;-77
2023/05/14 10:23:30;;;;;;;19.42;12.82;;;17.30;99.90;;;;;;5051674;28;20029;-76
2023/05/14 10:25:57;;;;;;;17.00;12.45;;;17.40;99.90;;;;;;5053013;28;20079;-76
2023/05/14 10:28:23;;;;;;;17.65;12.82;;;17.40;99.90;;;;;;5052516;28;20592;-77
2023/05/14 10:30:49;;;;;;;16.63;11.27;;;17.40;99.90;;;;;;5053494;28;20108;-77
2023/05/14 10:33:17;;;;;;;16.15;11.15;;;17.40;99.90;;;;;;5052864;28;20532;-76
2023/05/14 10:36:04;;;;;;;17.00;11.82;;;17.50;99.90;;;;;;5052006;28;20516;-76
2023/05/14 10:38:35;;;;;;;16.13;11.38;;;17.40;99.90;;;;;;5051342;28;20021;-76
2023/05/14 10:41:05;;;;;;;16.65;11.57;;;17.50;99.90;;;;;;5052499;28;20367;-75
2023/05/14 10:43:36;;;;;;;18.90;11.80;;;17.60;99.90;;;;;;5052530;28;20559;-76
2023/05/14 10:46:03;;;;;;;17.52;11.00;;;17.50;99.90;;;;;;5052708;28;20033;-75
2023/05/14 10:48:28;;;;;;;19.75;11.18;;;17.60;99.90;;;;;;5052413;28;20035;-76
2023/05/14 10:50:58;;;;;;;19.40;12.55;;;17.70;99.90;;;;;;5051098;28;20025;-76
2023/05/14 10:53:38;;;;;;;20.42;12.20;;;17.70;99.90;;;;;;5052783;28;20498;-76
2023/05/14 10:56:12;;;;;;;17.92;13.27;;;17.70;99.90;;;;;;5052606;28;20035;-75
2023/05/14 10:58:49;;;;;;;17.38;13.02;;;17.80;99.90;;;;;;5051929;28;20025;-76
2023/05/14 11:01:15;;;;;;;20.10;12.77;;;17.80;99.90;;;;;;5052254;28;20025;-75
2023/05/14 11:03:45;;;;;;;20.40;12.63;;;17.80;99.90;;;;;;5052284;28;20033;-76
2023/05/14 11:06:12;;;;;;;17.00;12.27;;;17.90;99.90;;;;;;5052080;28;20425;-75
2023/05/14 11:08:39;;;;;;;17.25;12.15;;;18.00;99.90;;;;;;5051847;28;20033;-76
2023/05/14 11:11:06;;;;;;;18.17;13.05;;;18.10;99.90;;;;;;5051806;28;20049;-75
2023/05/14 11:13:33;;;;;;;17.60;12.27;;;18.00;99.90;;;;;;5052168;28;20433;-75
2023/05/14 11:16:00;;;;;;;15.50;12.52;;;18.10;99.90;;;;;;5051648;28;20445;-76
2023/05/14 11:18:32;;;;;;;16.17;11.38;;;18.00;99.90;;;;;;5052217;28;20509;-76
2023/05/14 11:21:01;;;;;;;17.33;12.00;;;18.10;99.90;;;;;;5052084;28;20025;-75
2023/05/14 11:23:27;;;;;;;15.90;11.85;;;18.20;99.90;;;;;;5051775;28;20444;-76
2023/05/14 11:25:55;;;;;;;19.85;12.40;;;18.20;99.90;;;;;;5051420;28;20029;-76
2023/05/14 11:28:22;;;;;;;15.18;12.20;;;18.20;99.90;;;;;;5051713;28;20493;-75
2023/05/14 11:30:49;;;;;;;17.73;12.23;;;18.20;99.90;;;;;;5052082;28;20045;-76
2023/05/14 11:33:16;;;;;;;15.50;11.70;;;18.10;99.90;;;;;;5051549;28;20109;-76
2023/05/14 11:35:44;;;;;;;16.38;11.60;;;18.10;99.90;;;;;;5051642;28;20025;-76
2023/05/14 11:38:20;;;;;;;13.88;11.40;;;18.20;99.90;;;;;;5051432;28;20034;-76
2023/05/14 11:40:53;;;;;;;14.65;11.60;;;18.20;99.90;;;;;;5051339;28;20028;-75
2023/05/14 11:43:19;;;;;;;16.52;12.35;;;18.20;99.90;;;;;;5051895;28;20029;-76
2023/05/14 11:45:50;;;;;;;18.20;12.40;;;18.10;99.90;;;;;;5051571;28;20059;-76
2023/05/14 11:48:16;;;;;;;15.02;11.88;;;18.20;99.90;;;;;;5051127;28;20021;-76
2023/05/14 11:50:47;;;;;;;17.33;12.15;;;18.20;99.90;;;;;;5049945;28;20114;-76
2023/05/14 11:53:18;;;;;;;18.20;11.65;;;18.30;99.90;;;;;;5051514;28;20033;-76
2023/05/14 11:55:45;;;;;;;15.60;11.55;;;18.40;99.90;;;;;;5050627;28;20114;-76
2023/05/14 11:58:11;;;;;;;15.02;11.35;;;18.40;99.90;;;;;;5051566;28;20403;-76
2023/05/14 12:00:37;;;;;;;14.63;11.15;;;18.30;99.90;;;;;;5051275;28;20513;-76
2023/05/14 12:03:03;;;;;;;17.27;11.32;;;18.30;99.90;;;;;;5051163;28;20359;-76
2023/05/14 12:05:29;;;;;;;13.77;11.02;;;18.40;99.90;;;;;;5049850;28;20036;-76
2023/05/14 12:07:55;;;;;;;17.30;10.95;;;18.40;99.90;;;;;;5051380;28;20051;-76
2023/05/14 12:10:20;;;;;;;15.27;11.15;;;18.40;99.90;;;;;;5050588;28;20041;-76
2023/05/14 12:12:47;;;;;;;15.27;11.27;;;18.40;99.90;;;;;;5050943;28;20115;-76
2023/05/14 12:15:15;;;;;;;14.20;11.32;;;18.40;99.90;;;;;;5051167;28;20033;-76
2023/05/14 12:17:41;;;;;;;14.63;10.85;;;18.50;99.90;;;;;;5051479;28;20049;-77
2023/05/14 12:20:11;;;;;;;16.27;11.18;;;18.60;99.90;;;;;;5051105;28;20053;-76
2023/05/14 12:22:37;;;;;;;14.20;11.02;;;18.60;99.90;;;;;;5051130;28;20020;-77
2023/05/14 12:25:03;;;;;;;13.80;10.50;;;18.70;99.90;;;;;;5050940;28;20033;-77
2023/05/14 12:27:29;;;;;;;13.63;10.73;;;18.80;99.90;;;;;;5051266;28;20032;-78
2023/05/14 12:30:13;;;;;;;14.02;10.35;;;18.70;99.90;;;;;;5049705;28;20036;-78
2023/05/14 12:32:40;;;;;;;16.02;10.75;;;18.90;99.90;;;;;;5049804;28;20037;-78
2023/05/14 12:35:06;;;;;;;16.45;10.57;;;19.00;99.90;;;;;;5050934;28;20105;-78